Impacts METAR Board INFO
IDs:

KJFK - New York/Kennedy Int, NY, US

Updated at: 1444 UTC 22 Feb 2018
Potential Impact None Slight Moderate High
Time22/02Z 22/03Z 22/04Z 22/05Z 22/06Z 22/07Z 22/08Z 22/09Z 22/10Z 22/11Z 22/12Z 22/13Z 22/14Z
VIS 10 10 10 10 10 10 10 10 10 10 10
CIG 33 37 39 41 45 49 49 49 55 32 26
CoverOVCOVCOVCOVCOVCOVCOVCOVCOVCOVCOVC
FltCatVFRVFRVFRVFRVFRVFRVFRVFRVFRVFRMVFR
WX----------------------
WDir1020101030101020201030
WSpd 10 10 9 12 12 12 12 10 13 15 16
WGst -- -- -- -- -- -- -- -- -- -- 22
Raw hourly METARs


KJFK 220351Z 01010KT 10SM OVC033 16/13 A3037 RMK AO2 RAE28 SLP283 P0003 T01560133
KJFK 220451Z 02010KT 10SM OVC037 15/10 A3040 RMK AO2 SLP295 T01500100 401830067
KJFK 220551Z 01009KT 10SM OVC039 14/09 A3042 RMK AO2 RAB07E37 SLP302 P0000 60003 T01390089 10183 20111 53019
KJFK 220651Z 01012KT 10SM OVC041 13/01 A3045 RMK AO2 SLP312 T01330011
KJFK 220751Z 03012KT 10SM OVC045 12/03 A3048 RMK AO2 SLP321 T01170028
KJFK 220851Z 01012KT 10SM OVC049 11/04 A3050 RMK AO2 SLP328 T01060039 51026
KJFK 220951Z 01012KT 10SM OVC049 09/02 A3053 RMK AO2 SLP338 T00940022
KJFK 221051Z 02010KT 10SM OVC049 09/02 A3054 RMK AO2 SLP341 T00890022
KJFK 221151Z 02013KT 10SM OVC055 08/02 A3053 RMK AO2 SLP338 70003 T00780022 10139 20078 50010
KJFK 221251Z 01015KT 10SM SCT024 BKN032 OVC050 08/03 A3057 RMK AO2 SLP350 T00780028
KJFK 221351Z 03016G22KT 10SM OVC026 08/03 A3058 RMK AO2 SLP353 T00780028